sensor_id;sensor_type;location;lat;lon;timestamp;P1;durP1;ratioP1;P2;durP2;ratioP2
22705;SDS011;11520;51.198;4.468;2023-04-25T00:02:17;15.40;;;3.42;;
22705;SDS011;11520;51.198;4.468;2023-04-25T00:04:43;17.17;;;3.72;;
22705;SDS011;11520;51.198;4.468;2023-04-25T00:07:08;18.85;;;3.67;;
22705;SDS011;11520;51.198;4.468;2023-04-25T00:09:34;17.48;;;3.85;;
22705;SDS011;11520;51.198;4.468;2023-04-25T00:12:00;11.30;;;3.15;;
22705;SDS011;11520;51.198;4.468;2023-04-25T00:14:26;16.65;;;4.15;;
22705;SDS011;11520;51.198;4.468;2023-04-25T00:16:52;11.80;;;3.28;;
22705;SDS011;11520;51.198;4.468;2023-04-25T00:19:19;16.30;;;3.92;;
22705;SDS011;11520;51.198;4.468;2023-04-25T00:21:44;16.10;;;3.03;;
22705;SDS011;11520;51.198;4.468;2023-04-25T00:24:11;15.77;;;3.78;;
22705;SDS011;11520;51.198;4.468;2023-04-25T00:26:37;13.90;;;3.58;;
22705;SDS011;11520;51.198;4.468;2023-04-25T00:29:03;14.27;;;2.95;;
22705;SDS011;11520;51.198;4.468;2023-04-25T00:31:29;13.80;;;3.38;;
22705;SDS011;11520;51.198;4.468;2023-04-25T00:33:55;16.55;;;5.05;;
22705;SDS011;11520;51.198;4.468;2023-04-25T00:36:21;16.90;;;3.75;;
22705;SDS011;11520;51.198;4.468;2023-04-25T00:38:47;15.52;;;3.30;;
22705;SDS011;11520;51.198;4.468;2023-04-25T00:41:12;17.25;;;3.63;;
22705;SDS011;11520;51.198;4.468;2023-04-25T00:43:40;14.15;;;3.58;;
22705;SDS011;11520;51.198;4.468;2023-04-25T00:46:06;18.55;;;4.32;;
22705;SDS011;11520;51.198;4.468;2023-04-25T00:48:32;12.93;;;3.38;;
22705;SDS011;11520;51.198;4.468;2023-04-25T00:50:58;17.20;;;3.88;;
22705;SDS011;11520;51.198;4.468;2023-04-25T00:53:25;18.10;;;3.90;;
22705;SDS011;11520;51.198;4.468;2023-04-25T00:55:52;19.10;;;4.00;;
22705;SDS011;11520;51.198;4.468;2023-04-25T00:58:18;11.55;;;3.28;;
22705;SDS011;11520;51.198;4.468;2023-04-25T01:00:45;17.15;;;4.13;;
22705;SDS011;11520;51.198;4.468;2023-04-25T01:03:12;11.95;;;4.10;;
22705;SDS011;11520;51.198;4.468;2023-04-25T01:05:40;17.35;;;4.50;;
22705;SDS011;11520;51.198;4.468;2023-04-25T01:08:06;17.08;;;3.53;;
22705;SDS011;11520;51.198;4.468;2023-04-25T01:10:32;12.77;;;3.88;;
22705;SDS011;11520;51.198;4.468;2023-04-25T01:12:58;19.52;;;5.15;;
22705;SDS011;11520;51.198;4.468;2023-04-25T01:15:24;13.27;;;4.15;;
22705;SDS011;11520;51.198;4.468;2023-04-25T01:17:49;16.95;;;4.20;;
22705;SDS011;11520;51.198;4.468;2023-04-25T01:20:15;14.73;;;4.05;;
22705;SDS011;11520;51.198;4.468;2023-04-25T01:22:42;21.55;;;4.93;;
22705;SDS011;11520;51.198;4.468;2023-04-25T01:25:08;16.42;;;3.72;;
22705;SDS011;11520;51.198;4.468;2023-04-25T01:27:42;16.88;;;4.10;;
22705;SDS011;11520;51.198;4.468;2023-04-25T01:30:08;16.40;;;3.78;;
22705;SDS011;11520;51.198;4.468;2023-04-25T01:32:34;12.35;;;4.00;;
22705;SDS011;11520;51.198;4.468;2023-04-25T01:35:10;26.15;;;5.32;;
22705;SDS011;11520;51.198;4.468;2023-04-25T01:37:40;17.73;;;4.68;;
22705;SDS011;11520;51.198;4.468;2023-04-25T01:40:07;17.55;;;3.95;;
22705;SDS011;11520;51.198;4.468;2023-04-25T01:42:34;19.92;;;5.05;;
22705;SDS011;11520;51.198;4.468;2023-04-25T01:45:02;14.10;;;4.10;;
22705;SDS011;11520;51.198;4.468;2023-04-25T01:47:28;22.88;;;4.85;;
22705;SDS011;11520;51.198;4.468;2023-04-25T01:49:54;18.35;;;4.00;;
22705;SDS011;11520;51.198;4.468;2023-04-25T01:52:19;13.95;;;3.95;;
22705;SDS011;11520;51.198;4.468;2023-04-25T01:54:45;14.27;;;3.97;;
22705;SDS011;11520;51.198;4.468;2023-04-25T01:57:11;20.25;;;4.47;;
22705;SDS011;11520;51.198;4.468;2023-04-25T01:59:37;18.05;;;4.45;;
22705;SDS011;11520;51.198;4.468;2023-04-25T02:02:03;21.08;;;4.68;;
22705;SDS011;11520;51.198;4.468;2023-04-25T02:04:32;18.02;;;4.10;;
22705;SDS011;11520;51.198;4.468;2023-04-25T02:06:58;16.80;;;4.30;;
22705;SDS011;11520;51.198;4.468;2023-04-25T02:09:24;13.05;;;4.40;;
22705;SDS011;11520;51.198;4.468;2023-04-25T02:11:49;16.23;;;4.80;;
22705;SDS011;11520;51.198;4.468;2023-04-25T02:14:15;19.38;;;4.38;;
22705;SDS011;11520;51.198;4.468;2023-04-25T02:16:41;15.32;;;4.15;;
22705;SDS011;11520;51.198;4.468;2023-04-25T02:19:08;19.15;;;4.60;;
22705;SDS011;11520;51.198;4.468;2023-04-25T02:21:34;18.70;;;4.22;;
22705;SDS011;11520;51.198;4.468;2023-04-25T02:24:00;17.63;;;4.72;;
22705;SDS011;11520;51.198;4.468;2023-04-25T02:26:26;21.95;;;5.45;;
22705;SDS011;11520;51.198;4.468;2023-04-25T02:28:52;19.52;;;5.63;;
22705;SDS011;11520;51.198;4.468;2023-04-25T02:31:17;15.07;;;4.78;;
22705;SDS011;11520;51.198;4.468;2023-04-25T02:33:43;20.42;;;5.25;;
22705;SDS011;11520;51.198;4.468;2023-04-25T02:36:09;22.45;;;5.90;;
22705;SDS011;11520;51.198;4.468;2023-04-25T02:38:35;16.60;;;5.25;;
22705;SDS011;11520;51.198;4.468;2023-04-25T02:41:01;15.75;;;4.18;;
22705;SDS011;11520;51.198;4.468;2023-04-25T02:43:26;12.30;;;4.40;;
22705;SDS011;11520;51.198;4.468;2023-04-25T02:45:54;18.33;;;4.85;;
22705;SDS011;11520;51.198;4.468;2023-04-25T02:48:20;15.27;;;4.13;;
22705;SDS011;11520;51.198;4.468;2023-04-25T02:50:46;18.77;;;5.25;;
22705;SDS011;11520;51.198;4.468;2023-04-25T02:53:11;24.00;;;5.97;;
22705;SDS011;11520;51.198;4.468;2023-04-25T02:55:37;18.10;;;6.00;;
22705;SDS011;11520;51.198;4.468;2023-04-25T02:58:02;19.75;;;4.95;;
22705;SDS011;11520;51.198;4.468;2023-04-25T03:00:29;18.73;;;4.90;;
22705;SDS011;11520;51.198;4.468;2023-04-25T03:02:55;17.08;;;4.88;;
22705;SDS011;11520;51.198;4.468;2023-04-25T03:05:21;14.38;;;4.82;;
22705;SDS011;11520;51.198;4.468;2023-04-25T03:07:46;21.55;;;5.22;;
22705;SDS011;11520;51.198;4.468;2023-04-25T03:10:12;20.70;;;4.90;;
22705;SDS011;11520;51.198;4.468;2023-04-25T03:12:37;17.15;;;4.70;;
22705;SDS011;11520;51.198;4.468;2023-04-25T03:15:03;15.40;;;5.43;;
22705;SDS011;11520;51.198;4.468;2023-04-25T03:17:29;18.95;;;5.63;;
22705;SDS011;11520;51.198;4.468;2023-04-25T03:19:55;12.93;;;5.00;;
22705;SDS011;11520;51.198;4.468;2023-04-25T03:22:22;20.58;;;5.80;;
22705;SDS011;11520;51.198;4.468;2023-04-25T03:24:49;15.63;;;5.57;;
22705;SDS011;11520;51.198;4.468;2023-04-25T03:27:15;15.93;;;5.50;;
22705;SDS011;11520;51.198;4.468;2023-04-25T03:29:41;18.27;;;5.30;;
22705;SDS011;11520;51.198;4.468;2023-04-25T03:32:06;21.30;;;4.97;;
22705;SDS011;11520;51.198;4.468;2023-04-25T03:34:32;26.35;;;5.70;;
22705;SDS011;11520;51.198;4.468;2023-04-25T03:36:57;22.60;;;5.45;;
22705;SDS011;11520;51.198;4.468;2023-04-25T03:39:23;18.23;;;4.35;;
22705;SDS011;11520;51.198;4.468;2023-04-25T03:41:49;17.65;;;4.68;;
22705;SDS011;11520;51.198;4.468;2023-04-25T03:44:15;13.18;;;4.32;;
22705;SDS011;11520;51.198;4.468;2023-04-25T03:46:40;19.23;;;5.03;;
22705;SDS011;11520;51.198;4.468;2023-04-25T03:49:06;18.52;;;4.50;;
22705;SDS011;11520;51.198;4.468;2023-04-25T03:51:31;22.65;;;5.05;;
22705;SDS011;11520;51.198;4.468;2023-04-25T03:53:57;17.40;;;4.15;;
22705;SDS011;11520;51.198;4.468;2023-04-25T03:56:23;15.23;;;4.65;;
22705;SDS011;11520;51.198;4.468;2023-04-25T03:58:48;21.10;;;4.63;;
22705;SDS011;11520;51.198;4.468;2023-04-25T04:01:14;20.08;;;4.78;;
22705;SDS011;11520;51.198;4.468;2023-04-25T04:03:40;16.17;;;4.22;;
22705;SDS011;11520;51.198;4.468;2023-04-25T04:06:06;19.83;;;5.28;;
22705;SDS011;11520;51.198;4.468;2023-04-25T04:08:32;24.80;;;5.32;;
22705;SDS011;11520;51.198;4.468;2023-04-25T04:10:58;16.65;;;5.43;;
22705;SDS011;11520;51.198;4.468;2023-04-25T04:13:27;14.02;;;4.55;;
22705;SDS011;11520;51.198;4.468;2023-04-25T04:15:53;18.98;;;5.03;;
22705;SDS011;11520;51.198;4.468;2023-04-25T04:18:20;11.15;;;4.30;;
22705;SDS011;11520;51.198;4.468;2023-04-25T04:20:46;18.08;;;5.00;;
22705;SDS011;11520;51.198;4.468;2023-04-25T04:23:12;12.05;;;3.83;;
22705;SDS011;11520;51.198;4.468;2023-04-25T04:25:37;14.50;;;3.95;;
22705;SDS011;11520;51.198;4.468;2023-04-25T04:28:04;15.20;;;3.80;;
22705;SDS011;11520;51.198;4.468;2023-04-25T04:30:31;20.98;;;4.85;;
22705;SDS011;11520;51.198;4.468;2023-04-25T04:32:58;10.63;;;3.65;;
22705;SDS011;11520;51.198;4.468;2023-04-25T04:35:25;10.07;;;3.63;;
22705;SDS011;11520;51.198;4.468;2023-04-25T04:37:51;14.18;;;3.70;;
22705;SDS011;11520;51.198;4.468;2023-04-25T04:40:18;11.88;;;3.53;;
22705;SDS011;11520;51.198;4.468;2023-04-25T04:42:44;11.15;;;3.75;;
22705;SDS011;11520;51.198;4.468;2023-04-25T04:45:13;10.93;;;3.75;;
22705;SDS011;11520;51.198;4.468;2023-04-25T04:47:39;11.95;;;3.78;;
22705;SDS011;11520;51.198;4.468;2023-04-25T04:50:08;12.90;;;3.58;;
22705;SDS011;11520;51.198;4.468;2023-04-25T04:52:35;9.85;;;3.28;;
22705;SDS011;11520;51.198;4.468;2023-04-25T04:55:01;13.23;;;3.35;;
22705;SDS011;11520;51.198;4.468;2023-04-25T04:57:28;21.73;;;4.80;;
22705;SDS011;11520;51.198;4.468;2023-04-25T04:59:54;16.67;;;4.32;;
22705;SDS011;11520;51.198;4.468;2023-04-25T05:02:20;21.67;;;3.50;;
22705;SDS011;11520;51.198;4.468;2023-04-25T05:04:46;8.95;;;3.63;;
22705;SDS011;11520;51.198;4.468;2023-04-25T05:07:11;13.43;;;4.03;;
22705;SDS011;11520;51.198;4.468;2023-04-25T05:09:37;13.52;;;3.47;;
22705;SDS011;11520;51.198;4.468;2023-04-25T05:12:03;15.60;;;3.65;;
22705;SDS011;11520;51.198;4.468;2023-04-25T05:14:29;12.85;;;4.55;;
22705;SDS011;11520;51.198;4.468;2023-04-25T05:16:54;14.23;;;4.40;;
22705;SDS011;11520;51.198;4.468;2023-04-25T05:19:20;12.93;;;3.85;;
22705;SDS011;11520;51.198;4.468;2023-04-25T05:21:46;17.30;;;4.53;;
22705;SDS011;11520;51.198;4.468;2023-04-25T05:24:12;13.43;;;4.10;;
22705;SDS011;11520;51.198;4.468;2023-04-25T05:26:38;16.33;;;4.40;;
22705;SDS011;11520;51.198;4.468;2023-04-25T05:29:03;21.10;;;7.70;;
22705;SDS011;11520;51.198;4.468;2023-04-25T05:31:53;15.00;;;3.80;;
22705;SDS011;11520;51.198;4.468;2023-04-25T05:34:22;13.02;;;3.40;;
22705;SDS011;11520;51.198;4.468;2023-04-25T05:36:47;16.23;;;4.85;;
22705;SDS011;11520;51.198;4.468;2023-04-25T05:39:15;15.82;;;4.20;;
22705;SDS011;11520;51.198;4.468;2023-04-25T05:41:41;17.52;;;4.00;;
22705;SDS011;11520;51.198;4.468;2023-04-25T05:44:07;13.57;;;4.43;;
22705;SDS011;11520;51.198;4.468;2023-04-25T05:46:33;14.45;;;3.92;;
22705;SDS011;11520;51.198;4.468;2023-04-25T05:49:00;11.18;;;3.80;;
22705;SDS011;11520;51.198;4.468;2023-04-25T05:51:25;19.00;;;3.95;;
22705;SDS011;11520;51.198;4.468;2023-04-25T05:53:52;16.58;;;4.03;;
22705;SDS011;11520;51.198;4.468;2023-04-25T05:56:19;16.60;;;3.60;;
22705;SDS011;11520;51.198;4.468;2023-04-25T05:58:45;13.52;;;4.07;;
22705;SDS011;11520;51.198;4.468;2023-04-25T06:01:11;16.85;;;4.32;;
22705;SDS011;11520;51.198;4.468;2023-04-25T06:03:37;12.38;;;3.00;;
22705;SDS011;11520;51.198;4.468;2023-04-25T06:06:03;10.88;;;3.60;;
22705;SDS011;11520;51.198;4.468;2023-04-25T06:08:29;13.95;;;3.65;;
22705;SDS011;11520;51.198;4.468;2023-04-25T06:10:54;11.80;;;2.88;;
22705;SDS011;11520;51.198;4.468;2023-04-25T06:13:20;14.98;;;4.00;;
22705;SDS011;11520;51.198;4.468;2023-04-25T06:15:46;11.73;;;3.17;;
22705;SDS011;11520;51.198;4.468;2023-04-25T06:18:11;13.60;;;3.20;;
22705;SDS011;11520;51.198;4.468;2023-04-25T06:20:37;18.80;;;3.70;;
22705;SDS011;11520;51.198;4.468;2023-04-25T06:23:03;13.20;;;3.20;;
22705;SDS011;11520;51.198;4.468;2023-04-25T06:25:28;11.88;;;3.30;;
22705;SDS011;11520;51.198;4.468;2023-04-25T06:27:54;10.50;;;3.20;;
22705;SDS011;11520;51.198;4.468;2023-04-25T06:30:20;11.63;;;3.17;;
22705;SDS011;11520;51.198;4.468;2023-04-25T06:32:49;12.30;;;2.63;;
22705;SDS011;11520;51.198;4.468;2023-04-25T06:35:15;11.63;;;2.47;;
22705;SDS011;11520;51.198;4.468;2023-04-25T06:37:41;9.18;;;2.50;;
22705;SDS011;11520;51.198;4.468;2023-04-25T06:40:07;10.93;;;2.88;;
22705;SDS011;11520;51.198;4.468;2023-04-25T06:42:33;8.50;;;2.47;;
22705;SDS011;11520;51.198;4.468;2023-04-25T06:44:58;7.90;;;2.85;;
22705;SDS011;11520;51.198;4.468;2023-04-25T06:47:24;16.25;;;3.22;;
22705;SDS011;11520;51.198;4.468;2023-04-25T06:49:50;10.18;;;2.60;;
22705;SDS011;11520;51.198;4.468;2023-04-25T06:52:15;12.05;;;2.78;;
22705;SDS011;11520;51.198;4.468;2023-04-25T06:54:42;9.43;;;2.78;;
22705;SDS011;11520;51.198;4.468;2023-04-25T06:57:08;11.68;;;3.08;;
22705;SDS011;11520;51.198;4.468;2023-04-25T06:59:34;6.97;;;2.22;;
22705;SDS011;11520;51.198;4.468;2023-04-25T07:01:59;10.13;;;2.72;;
22705;SDS011;11520;51.198;4.468;2023-04-25T07:04:25;12.77;;;2.45;;
22705;SDS011;11520;51.198;4.468;2023-04-25T07:06:51;11.38;;;2.17;;
22705;SDS011;11520;51.198;4.468;2023-04-25T07:09:16;9.90;;;2.83;;
22705;SDS011;11520;51.198;4.468;2023-04-25T07:11:42;10.77;;;2.60;;
22705;SDS011;11520;51.198;4.468;2023-04-25T07:14:08;17.38;;;2.75;;
22705;SDS011;11520;51.198;4.468;2023-04-25T07:16:33;10.20;;;2.25;;
22705;SDS011;11520;51.198;4.468;2023-04-25T07:18:59;13.20;;;3.05;;
22705;SDS011;11520;51.198;4.468;2023-04-25T07:21:25;19.83;;;2.63;;
22705;SDS011;11520;51.198;4.468;2023-04-25T07:23:51;9.13;;;2.75;;
22705;SDS011;11520;51.198;4.468;2023-04-25T07:26:17;9.70;;;2.67;;
22705;SDS011;11520;51.198;4.468;2023-04-25T07:28:42;11.05;;;2.38;;
22705;SDS011;11520;51.198;4.468;2023-04-25T07:31:08;12.00;;;2.75;;
22705;SDS011;11520;51.198;4.468;2023-04-25T07:33:34;7.93;;;2.55;;
22705;SDS011;11520;51.198;4.468;2023-04-25T07:36:00;11.75;;;2.42;;
22705;SDS011;11520;51.198;4.468;2023-04-25T07:38:27;8.90;;;2.20;;
22705;SDS011;11520;51.198;4.468;2023-04-25T07:40:52;9.68;;;1.83;;
22705;SDS011;11520;51.198;4.468;2023-04-25T07:43:18;9.93;;;2.13;;
22705;SDS011;11520;51.198;4.468;2023-04-25T07:45:44;9.75;;;1.58;;
22705;SDS011;11520;51.198;4.468;2023-04-25T07:48:10;11.30;;;1.95;;
22705;SDS011;11520;51.198;4.468;2023-04-25T07:50:36;5.35;;;1.67;;
22705;SDS011;11520;51.198;4.468;2023-04-25T07:53:01;8.60;;;2.15;;
22705;SDS011;11520;51.198;4.468;2023-04-25T07:55:27;7.50;;;1.77;;
22705;SDS011;11520;51.198;4.468;2023-04-25T07:57:53;7.70;;;2.05;;
22705;SDS011;11520;51.198;4.468;2023-04-25T08:00:18;5.57;;;1.55;;
22705;SDS011;11520;51.198;4.468;2023-04-25T08:02:44;9.32;;;2.08;;
22705;SDS011;11520;51.198;4.468;2023-04-25T08:05:10;5.90;;;1.85;;
22705;SDS011;11520;51.198;4.468;2023-04-25T08:07:39;9.90;;;1.98;;
22705;SDS011;11520;51.198;4.468;2023-04-25T08:10:06;7.13;;;1.40;;
22705;SDS011;11520;51.198;4.468;2023-04-25T08:12:32;10.50;;;1.67;;
22705;SDS011;11520;51.198;4.468;2023-04-25T08:14:58;10.27;;;1.27;;
22705;SDS011;11520;51.198;4.468;2023-04-25T08:17:23;4.28;;;1.23;;
22705;SDS011;11520;51.198;4.468;2023-04-25T08:19:49;3.20;;;1.25;;
22705;SDS011;11520;51.198;4.468;2023-04-25T08:22:15;4.57;;;1.30;;
22705;SDS011;11520;51.198;4.468;2023-04-25T08:24:41;5.45;;;1.17;;
22705;SDS011;11520;51.198;4.468;2023-04-25T08:27:07;6.57;;;1.35;;
22705;SDS011;11520;51.198;4.468;2023-04-25T08:29:33;8.13;;;1.40;;
22705;SDS011;11520;51.198;4.468;2023-04-25T08:31:59;5.10;;;0.80;;
22705;SDS011;11520;51.198;4.468;2023-04-25T08:34:25;7.53;;;1.40;;
22705;SDS011;11520;51.198;4.468;2023-04-25T08:36:51;3.05;;;1.17;;
22705;SDS011;11520;51.198;4.468;2023-04-25T08:39:17;5.18;;;1.58;;
22705;SDS011;11520;51.198;4.468;2023-04-25T08:41:45;7.97;;;1.48;;
22705;SDS011;11520;51.198;4.468;2023-04-25T08:44:11;4.75;;;1.08;;
22705;SDS011;11520;51.198;4.468;2023-04-25T08:46:38;7.43;;;1.92;;
22705;SDS011;11520;51.198;4.468;2023-04-25T08:49:05;9.73;;;2.10;;
22705;SDS011;11520;51.198;4.468;2023-04-25T08:51:32;6.80;;;1.40;;
22705;SDS011;11520;51.198;4.468;2023-04-25T08:54:09;7.57;;;1.80;;
22705;SDS011;11520;51.198;4.468;2023-04-25T08:56:37;6.57;;;1.30;;
22705;SDS011;11520;51.198;4.468;2023-04-25T08:59:05;5.57;;;1.55;;
22705;SDS011;11520;51.198;4.468;2023-04-25T09:01:33;5.80;;;1.25;;
22705;SDS011;11520;51.198;4.468;2023-04-25T09:04:00;8.10;;;1.52;;
22705;SDS011;11520;51.198;4.468;2023-04-25T09:06:28;3.80;;;1.20;;
22705;SDS011;11520;51.198;4.468;2023-04-25T09:08:55;3.35;;;1.35;;
22705;SDS011;11520;51.198;4.468;2023-04-25T09:11:31;5.95;;;1.60;;
22705;SDS011;11520;51.198;4.468;2023-04-25T09:14:16;8.07;;;1.63;;
22705;SDS011;11520;51.198;4.468;2023-04-25T09:21:57;5.72;;;1.23;;
22705;SDS011;11520;51.198;4.468;2023-04-25T09:25:02;6.60;;;1.45;;
22705;SDS011;11520;51.198;4.468;2023-04-25T09:27:21;5.38;;;1.17;;
22705;SDS011;11520;51.198;4.468;2023-04-25T09:29:56;10.68;;;1.42;;
22705;SDS011;11520;51.198;4.468;2023-04-25T09:32:25;5.68;;;1.40;;
22705;SDS011;11520;51.198;4.468;2023-04-25T09:34:52;4.60;;;1.15;;
22705;SDS011;11520;51.198;4.468;2023-04-25T09:39:49;5.22;;;0.88;;
22705;SDS011;11520;51.198;4.468;2023-04-25T09:42:18;8.15;;;0.98;;
22705;SDS011;11520;51.198;4.468;2023-04-25T09:44:48;3.78;;;1.00;;
22705;SDS011;11520;51.198;4.468;2023-04-25T09:47:16;4.35;;;0.90;;
22705;SDS011;11520;51.198;4.468;2023-04-25T09:49:42;2.88;;;0.93;;
22705;SDS011;11520;51.198;4.468;2023-04-25T09:52:11;4.22;;;1.02;;
22705;SDS011;11520;51.198;4.468;2023-04-25T09:54:40;8.63;;;1.25;;
22705;SDS011;11520;51.198;4.468;2023-04-25T09:57:09;5.38;;;0.98;;
22705;SDS011;11520;51.198;4.468;2023-04-25T09:59:36;3.08;;;0.88;;
22705;SDS011;11520;51.198;4.468;2023-04-25T10:02:06;6.20;;;0.98;;
22705;SDS011;11520;51.198;4.468;2023-04-25T10:04:34;5.35;;;1.10;;
22705;SDS011;11520;51.198;4.468;2023-04-25T10:07:01;6.30;;;1.15;;
22705;SDS011;11520;51.198;4.468;2023-04-25T10:09:30;3.72;;;1.08;;
22705;SDS011;11520;51.198;4.468;2023-04-25T10:11:58;1.67;;;0.63;;
22705;SDS011;11520;51.198;4.468;2023-04-25T10:14:25;2.97;;;0.90;;
22705;SDS011;11520;51.198;4.468;2023-04-25T10:16:51;5.65;;;1.27;;
22705;SDS011;11520;51.198;4.468;2023-04-25T10:19:19;8.80;;;1.13;;
22705;SDS011;11520;51.198;4.468;2023-04-25T10:22:32;4.13;;;1.15;;
22705;SDS011;11520;51.198;4.468;2023-04-25T10:24:55;7.72;;;1.30;;
22705;SDS011;11520;51.198;4.468;2023-04-25T10:27:22;6.32;;;1.15;;
22705;SDS011;11520;51.198;4.468;2023-04-25T10:30:00;6.03;;;1.00;;
22705;SDS011;11520;51.198;4.468;2023-04-25T10:32:31;6.10;;;1.10;;
22705;SDS011;11520;51.198;4.468;2023-04-25T10:38:31;4.22;;;1.00;;
22705;SDS011;11520;51.198;4.468;2023-04-25T10:40:39;5.47;;;0.68;;
22705;SDS011;11520;51.198;4.468;2023-04-25T10:45:56;4.57;;;0.68;;
22705;SDS011;11520;51.198;4.468;2023-04-25T10:48:28;1.58;;;0.93;;
22705;SDS011;11520;51.198;4.468;2023-04-25T10:51:08;9.23;;;1.17;;
22705;SDS011;11520;51.198;4.468;2023-04-25T10:53:40;2.50;;;0.80;;
22705;SDS011;11520;51.198;4.468;2023-04-25T10:56:19;2.92;;;0.80;;
22705;SDS011;11520;51.198;4.468;2023-04-25T10:58:46;5.30;;;1.05;;
22705;SDS011;11520;51.198;4.468;2023-04-25T11:01:13;6.00;;;0.70;;
22705;SDS011;11520;51.198;4.468;2023-04-25T11:03:40;2.85;;;0.73;;
22705;SDS011;11520;51.198;4.468;2023-04-25T11:06:11;4.22;;;0.75;;
22705;SDS011;11520;51.198;4.468;2023-04-25T11:08:48;5.30;;;0.98;;
22705;SDS011;11520;51.198;4.468;2023-04-25T11:11:18;5.40;;;0.82;;
22705;SDS011;11520;51.198;4.468;2023-04-25T11:13:47;4.10;;;0.98;;
22705;SDS011;11520;51.198;4.468;2023-04-25T11:16:14;4.03;;;1.00;;
22705;SDS011;11520;51.198;4.468;2023-04-25T11:18:43;4.55;;;1.10;;
22705;SDS011;11520;51.198;4.468;2023-04-25T11:21:10;2.30;;;0.80;;
22705;SDS011;11520;51.198;4.468;2023-04-25T11:23:36;5.20;;;0.85;;
22705;SDS011;11520;51.198;4.468;2023-04-25T11:26:05;5.43;;;0.77;;
22705;SDS011;11520;51.198;4.468;2023-04-25T11:28:32;6.03;;;1.02;;
22705;SDS011;11520;51.198;4.468;2023-04-25T11:30:57;3.85;;;1.10;;
22705;SDS011;11520;51.198;4.468;2023-04-25T11:33:23;3.17;;;0.77;;
22705;SDS011;11520;51.198;4.468;2023-04-25T11:35:51;3.35;;;0.80;;
22705;SDS011;11520;51.198;4.468;2023-04-25T11:38:18;2.00;;;0.98;;
22705;SDS011;11520;51.198;4.468;2023-04-25T11:40:45;2.00;;;0.60;;
22705;SDS011;11520;51.198;4.468;2023-04-25T11:43:15;4.53;;;0.70;;
22705;SDS011;11520;51.198;4.468;2023-04-25T11:45:41;6.18;;;1.05;;
22705;SDS011;11520;51.198;4.468;2023-04-25T11:48:06;5.43;;;0.80;;
22705;SDS011;11520;51.198;4.468;2023-04-25T11:50:32;5.00;;;0.80;;
22705;SDS011;11520;51.198;4.468;2023-04-25T11:52:58;3.22;;;0.60;;
22705;SDS011;11520;51.198;4.468;2023-04-25T11:55:24;4.47;;;0.90;;
22705;SDS011;11520;51.198;4.468;2023-04-25T11:57:49;5.05;;;0.98;;
22705;SDS011;11520;51.198;4.468;2023-04-25T12:00:19;3.85;;;1.15;;
22705;SDS011;11520;51.198;4.468;2023-04-25T12:02:47;5.88;;;0.82;;
22705;SDS011;11520;51.198;4.468;2023-04-25T12:05:16;4.57;;;0.77;;
22705;SDS011;11520;51.198;4.468;2023-04-25T12:07:42;2.65;;;0.70;;
22705;SDS011;11520;51.198;4.468;2023-04-25T12:10:08;4.35;;;0.82;;
22705;SDS011;11520;51.198;4.468;2023-04-25T12:12:42;2.85;;;0.57;;
22705;SDS011;11520;51.198;4.468;2023-04-25T12:15:19;3.22;;;0.85;;
22705;SDS011;11520;51.198;4.468;2023-04-25T12:17:50;5.97;;;0.70;;
22705;SDS011;11520;51.198;4.468;2023-04-25T12:20:17;3.55;;;0.65;;
22705;SDS011;11520;51.198;4.468;2023-04-25T12:22:46;3.22;;;0.75;;
22705;SDS011;11520;51.198;4.468;2023-04-25T12:25:58;3.03;;;0.68;;
22705;SDS011;11520;51.198;4.468;2023-04-25T12:28:14;2.40;;;0.70;;
22705;SDS011;11520;51.198;4.468;2023-04-25T12:31:04;2.10;;;0.55;;
22705;SDS011;11520;51.198;4.468;2023-04-25T12:33:35;2.42;;;0.73;;
22705;SDS011;11520;51.198;4.468;2023-04-25T12:36:02;6.63;;;0.65;;
22705;SDS011;11520;51.198;4.468;2023-04-25T12:38:37;2.58;;;0.85;;
22705;SDS011;11520;51.198;4.468;2023-04-25T12:41:04;2.75;;;1.02;;
22705;SDS011;11520;51.198;4.468;2023-04-25T12:43:30;2.00;;;0.80;;
22705;SDS011;11520;51.198;4.468;2023-04-25T12:45:56;5.68;;;1.02;;
22705;SDS011;11520;51.198;4.468;2023-04-25T12:48:22;3.42;;;0.90;;
22705;SDS011;11520;51.198;4.468;2023-04-25T12:50:48;3.95;;;1.00;;
22705;SDS011;11520;51.198;4.468;2023-04-25T12:53:18;4.28;;;0.95;;
22705;SDS011;11520;51.198;4.468;2023-04-25T12:55:45;5.57;;;1.20;;
22705;SDS011;11520;51.198;4.468;2023-04-25T12:58:12;3.08;;;0.77;;
22705;SDS011;11520;51.198;4.468;2023-04-25T13:00:41;4.63;;;1.08;;
22705;SDS011;11520;51.198;4.468;2023-04-25T13:03:07;3.60;;;0.80;;
22705;SDS011;11520;51.198;4.468;2023-04-25T13:05:33;5.97;;;1.33;;
22705;SDS011;11520;51.198;4.468;2023-04-25T13:07:58;5.85;;;1.10;;
22705;SDS011;11520;51.198;4.468;2023-04-25T13:10:24;5.93;;;1.10;;
22705;SDS011;11520;51.198;4.468;2023-04-25T13:12:50;5.78;;;0.98;;
22705;SDS011;11520;51.198;4.468;2023-04-25T13:15:16;2.85;;;1.27;;
22705;SDS011;11520;51.198;4.468;2023-04-25T13:17:42;5.18;;;0.95;;
22705;SDS011;11520;51.198;4.468;2023-04-25T13:20:08;3.03;;;0.98;;
22705;SDS011;11520;51.198;4.468;2023-04-25T13:22:37;3.50;;;1.10;;
22705;SDS011;11520;51.198;4.468;2023-04-25T13:25:04;5.95;;;1.05;;
22705;SDS011;11520;51.198;4.468;2023-04-25T13:27:32;5.68;;;1.10;;
22705;SDS011;11520;51.198;4.468;2023-04-25T13:30:02;3.15;;;1.10;;
22705;SDS011;11520;51.198;4.468;2023-04-25T13:32:36;3.92;;;0.70;;
22705;SDS011;11520;51.198;4.468;2023-04-25T13:35:06;8.52;;;0.98;;
22705;SDS011;11520;51.198;4.468;2023-04-25T13:37:33;6.10;;;1.67;;
22705;SDS011;11520;51.198;4.468;2023-04-25T13:40:03;7.38;;;1.20;;
22705;SDS011;11520;51.198;4.468;2023-04-25T13:42:31;5.93;;;1.30;;
22705;SDS011;11520;51.198;4.468;2023-04-25T13:44:57;5.20;;;0.90;;
22705;SDS011;11520;51.198;4.468;2023-04-25T13:47:23;3.88;;;1.20;;
22705;SDS011;11520;51.198;4.468;2023-04-25T13:49:50;6.35;;;1.25;;
22705;SDS011;11520;51.198;4.468;2023-04-25T13:52:16;4.22;;;1.10;;
22705;SDS011;11520;51.198;4.468;2023-04-25T13:54:41;2.53;;;0.88;;
22705;SDS011;11520;51.198;4.468;2023-04-25T13:57:07;6.85;;;1.15;;
22705;SDS011;11520;51.198;4.468;2023-04-25T13:59:33;6.30;;;1.33;;
22705;SDS011;11520;51.198;4.468;2023-04-25T14:01:59;3.70;;;1.20;;
22705;SDS011;11520;51.198;4.468;2023-04-25T14:04:24;3.45;;;1.00;;
22705;SDS011;11520;51.198;4.468;2023-04-25T14:06:51;5.78;;;1.33;;
22705;SDS011;11520;51.198;4.468;2023-04-25T14:09:17;6.97;;;1.20;;
22705;SDS011;11520;51.198;4.468;2023-04-25T14:11:44;7.03;;;1.38;;
22705;SDS011;11520;51.198;4.468;2023-04-25T14:14:10;6.07;;;0.90;;
22705;SDS011;11520;51.198;4.468;2023-04-25T14:16:37;5.72;;;1.42;;
22705;SDS011;11520;51.198;4.468;2023-04-25T14:19:03;5.88;;;1.10;;
22705;SDS011;11520;51.198;4.468;2023-04-25T14:21:29;6.43;;;1.08;;
22705;SDS011;11520;51.198;4.468;2023-04-25T14:23:57;8.52;;;1.65;;
22705;SDS011;11520;51.198;4.468;2023-04-25T14:26:23;4.47;;;1.17;;
22705;SDS011;11520;51.198;4.468;2023-04-25T14:28:49;6.90;;;1.15;;
22705;SDS011;11520;51.198;4.468;2023-04-25T14:31:16;3.47;;;1.08;;
22705;SDS011;11520;51.198;4.468;2023-04-25T14:33:42;4.47;;;1.40;;
22705;SDS011;11520;51.198;4.468;2023-04-25T14:36:08;6.95;;;1.60;;
22705;SDS011;11520;51.198;4.468;2023-04-25T14:38:34;3.65;;;0.98;;
22705;SDS011;11520;51.198;4.468;2023-04-25T14:41:03;5.43;;;1.08;;
22705;SDS011;11520;51.198;4.468;2023-04-25T14:43:31;5.90;;;1.13;;
22705;SDS011;11520;51.198;4.468;2023-04-25T14:45:57;7.07;;;1.35;;
22705;SDS011;11520;51.198;4.468;2023-04-25T14:48:23;6.55;;;1.70;;
22705;SDS011;11520;51.198;4.468;2023-04-25T14:50:48;3.60;;;0.80;;
22705;SDS011;11520;51.198;4.468;2023-04-25T14:53:14;7.35;;;1.13;;
22705;SDS011;11520;51.198;4.468;2023-04-25T14:55:40;4.72;;;1.20;;